Time;durP1;ratioP1;P1;durP2;ratioP2;P2;SDS_P1;SDS_P2;PMS_P1;PMS_P2;Temp;Humidity;BMP_temperature;BMP_pressure;BME280_temperature;BME280_humidity;BME280_pressure;Samples;Min_cycle;Max_cycle;Signal;HPM_P1;HPM_P2
2022/12/05 00:02:09;;;;;;;7.80;3.83;;;;;;;6.01;72.76;94802.94;4967167;28;20054;-80
2022/12/05 00:04:34;;;;;;;9.73;4.40;;;;;;;5.99;73.12;94805.03;4967241;28;20027;-80
2022/12/05 00:07:00;;;;;;;8.45;4.28;;;;;;;5.97;73.22;94810.59;4967099;28;20034;-79
2022/12/05 00:09:26;;;;;;;7.90;3.75;;;;;;;6.01;72.78;94808.22;4967342;28;20031;-80
2022/12/05 00:11:51;;;;;;;6.95;3.55;;;;;;;5.99;72.82;94805.03;4967017;28;20019;-79
2022/12/05 00:14:17;;;;;;;12.40;3.88;;;;;;;5.98;72.83;94806.91;4967166;28;20212;-79
2022/12/05 00:16:43;;;;;;;6.65;3.78;;;;;;;5.96;73.01;94810.84;4966990;28;20039;-80
2022/12/05 00:19:12;;;;;;;10.80;4.53;;;;;;;5.91;73.29;94808.16;4967057;28;20288;-80
2022/12/05 00:21:38;;;;;;;10.05;4.47;;;;;;;5.88;73.27;94820.03;4966926;28;20066;-79
2022/12/05 00:24:06;;;;;;;14.18;4.50;;;;;;;5.87;73.41;94820.31;4966837;28;20024;-80
2022/12/05 00:26:32;;;;;;;9.18;4.63;;;;;;;5.86;73.38;94813.44;4966684;28;20229;-79
2022/12/05 00:28:58;;;;;;;8.05;3.78;;;;;;;5.82;73.19;94816.59;4966960;28;20026;-79
2022/12/05 00:31:25;;;;;;;8.23;4.45;;;;;;;5.79;73.10;94817.13;4966904;28;20023;-80
2022/12/05 00:33:52;;;;;;;12.68;4.32;;;;;;;5.79;73.17;94825.03;4966740;28;20234;-80
2022/12/05 00:36:25;;;;;;;10.38;4.50;;;;;;;5.72;73.29;94826.34;4966766;28;20220;-80
2022/12/05 00:38:51;;;;;;;8.20;4.25;;;;;;;5.73;73.47;94827.94;4966769;28;20027;-80
2022/12/05 00:41:22;;;;;;;7.30;4.00;;;;;;;5.72;73.50;94835.09;4966643;28;20027;-80
2022/12/05 00:43:48;;;;;;;8.75;4.20;;;;;;;5.69;73.38;94827.66;4966637;28;20095;-80
2022/12/05 00:46:25;;;;;;;8.07;4.13;;;;;;;5.61;73.62;94831.56;4966477;28;20266;-80
2022/12/05 00:48:54;;;;;;;8.38;4.30;;;;;;;5.60;73.83;94824.72;4966297;28;20325;-80
2022/12/05 00:51:29;;;;;;;11.48;4.20;;;;;;;5.57;73.88;94824.44;4966467;28;20049;-80
2022/12/05 00:53:58;;;;;;;10.02;5.20;;;;;;;5.57;73.90;94829.72;4966625;28;20019;-81
2022/12/05 00:56:25;;;;;;;11.15;5.15;;;;;;;5.54;74.14;94820.47;4966304;28;20023;-81
2022/12/05 00:58:53;;;;;;;9.55;4.28;;;;;;;5.53;74.19;94818.06;4966123;28;20030;-81
2022/12/05 01:01:24;;;;;;;10.02;5.43;;;;;;;5.53;74.24;94807.47;4966262;28;20019;-81
2022/12/05 01:03:55;;;;;;;11.65;5.05;;;;;;;5.56;74.13;94809.63;4966122;28;20034;-81
2022/12/05 01:06:21;;;;;;;9.75;5.18;;;;;;;5.54;73.95;94798.50;4964963;28;20123;-80
2022/12/05 01:08:46;;;;;;;18.85;6.38;;;;;;;5.53;74.19;94807.47;4997044;28;20043;-80
2022/12/05 01:11:17;;;;;;;11.85;5.65;;;;;;;5.53;74.15;94804.84;4966060;28;20019;-80
2022/12/05 01:13:44;;;;;;;11.40;5.68;;;;;;;5.51;74.29;94804.31;4965959;28;20031;-81
2022/12/05 01:16:28;;;;;;;12.45;6.35;;;;;;;5.50;74.51;94800.06;4965810;28;20246;-81
2022/12/05 01:18:55;;;;;;;16.05;8.85;;;;;;;5.51;74.44;94813.03;4965812;28;20095;-80
2022/12/05 01:21:21;;;;;;;19.60;9.80;;;;;;;5.53;74.37;94805.63;4965815;28;20042;-81
2022/12/05 01:23:47;;;;;;;17.77;9.15;;;;;;;5.52;74.61;94803.25;4965726;28;20022;-80
2022/12/05 01:26:16;;;;;;;16.73;8.60;;;;;;;5.55;74.55;94805.38;4965619;28;20050;-81
2022/12/05 01:28:42;;;;;;;11.60;6.57;;;;;;;5.56;74.77;94791.13;4965637;28;20090;-80
2022/12/05 01:31:24;;;;;;;12.60;6.45;;;;;;;5.57;74.90;94796.13;4965594;28;20038;-80
2022/12/05 01:33:50;;;;;;;;;;;;;;;5.56;75.07;94793.75;4965823;28;20023;-80
2022/12/05 01:36:16;;;;;;;13.98;5.75;;;;;;;5.53;75.11;94786.31;4965498;28;19907;-80
2022/12/05 01:38:42;;;;;;;12.45;5.55;;;;;;;5.55;75.26;94789.50;4965447;28;20026;-80
2022/12/05 01:41:11;;;;;;;13.65;6.32;;;;;;;5.58;75.12;94786.38;4965556;28;20023;-80
2022/12/05 01:43:57;;;;;;;11.48;6.10;;;;;;;5.60;74.99;94776.31;4965361;28;20027;-80
2022/12/05 01:46:24;;;;;;;10.73;5.15;;;;;;;5.58;74.82;94773.13;4965205;28;20035;-79
2022/12/05 01:48:52;;;;;;;8.05;4.72;;;;;;;5.58;74.83;94778.44;4965372;28;20031;-80
2022/12/05 01:51:18;;;;;;;9.95;5.60;;;;;;;5.53;74.71;94776.53;4965246;28;20070;-81
2022/12/05 01:53:43;;;;;;;15.07;5.95;;;;;;;5.53;74.51;94770.47;4965375;28;20090;-80
2022/12/05 01:56:09;;;;;;;8.35;4.78;;;;;;;5.52;74.24;94774.97;4965168;28;20023;-80
2022/12/05 01:58:37;;;;;;;12.60;5.53;;;;;;;5.48;73.85;94771.25;4965135;28;20222;-81
2022/12/05 02:01:03;;;;;;;11.07;4.97;;;;;;;5.41;73.75;94774.13;4965005;28;20047;-81
2022/12/05 02:03:29;;;;;;;8.88;5.25;;;;;;;5.39;73.77;94770.13;4965445;28;20034;-81
2022/12/05 02:05:57;;;;;;;11.80;5.80;;;;;;;5.34;73.76;94775.41;4964956;28;20322;-81
2022/12/05 02:08:26;;;;;;;11.55;5.47;;;;;;;5.31;73.74;94774.09;4963731;28;20023;-81
2022/12/05 02:10:55;;;;;;;8.73;4.70;;;;;;;5.26;73.58;94776.69;4965023;28;20222;-81
2022/12/05 02:13:46;;;;;;;12.00;5.18;;;;;;;5.20;73.68;94775.06;4964967;28;20221;-81
2022/12/05 02:16:31;;;;;;;11.48;5.10;;;;;;;5.16;73.54;94781.91;4964848;28;20118;-82
2022/12/05 02:19:08;;;;;;;11.35;5.80;;;;;;;5.09;73.90;94779.50;4964686;28;20023;-82
2022/12/05 02:21:55;;;;;;;9.40;4.97;;;;;;;5.04;74.05;94782.13;4964973;28;20221;-82
2022/12/05 02:24:39;;;;;;;10.00;5.75;;;;;;;5.01;74.04;94786.06;4964892;28;20094;-81
2022/12/05 02:27:28;;;;;;;12.85;6.85;;;;;;;5.00;74.28;94791.59;4964760;28;20090;-82
2022/12/05 02:30:18;;;;;;;15.82;7.78;;;;;;;4.99;74.41;94787.38;4965092;28;20030;-82
2022/12/05 02:32:50;;;;;;;12.70;7.38;;;;;;;4.98;74.87;94783.91;4964692;28;20336;-82
2022/12/05 02:35:31;;;;;;;15.00;7.80;;;;;;;4.98;74.88;94786.56;4964618;28;20078;-82
2022/12/05 02:38:16;;;;;;;13.45;6.63;;;;;;;5.01;74.97;94775.50;4995991;28;20042;-82
2022/12/05 02:41:13;;;;;;;14.75;8.25;;;;;;;4.98;74.77;94773.34;4957495;28;20047;-82
2022/12/05 02:44:05;;;;;;;12.18;6.55;;;;;;;4.98;74.95;94770.72;4995716;28;20015;-82
2022/12/05 02:46:35;;;;;;;15.00;7.47;;;;;;;4.96;75.13;94767.53;4995247;28;20019;-82
2022/12/05 02:49:05;;;;;;;16.30;7.13;;;;;;;4.95;75.27;94773.09;4964117;28;20302;-83
2022/12/05 02:51:38;;;;;;;16.88;7.00;;;;;;;4.96;75.44;94759.59;4964496;28;20023;-83
2022/12/05 02:54:09;;;;;;;14.27;7.63;;;;;;;5.00;75.24;94767.81;4964518;28;20023;-83
2022/12/05 02:56:36;;;;;;;16.63;8.02;;;;;;;4.99;75.66;94761.75;4964255;28;20094;-83
2022/12/05 02:59:02;;;;;;;17.27;8.55;;;;;;;4.97;75.57;94757.78;4964498;28;20034;-81
2022/12/05 03:01:30;;;;;;;17.92;8.90;;;;;;;4.97;75.69;94757.78;4964367;28;20027;-81
2022/12/05 03:03:58;;;;;;;20.77;10.32;;;;;;;4.98;75.88;94752.22;4964015;28;20207;-81
2022/12/05 03:06:32;;;;;;;17.85;8.52;;;;;;;5.02;75.11;94755.94;4963090;28;20031;-82
2022/12/05 03:09:05;;;;;;;16.30;8.68;;;;;;;5.03;75.27;94749.63;4964526;28;20034;-82
2022/12/05 03:11:40;;;;;;;17.67;10.00;;;;;;;5.06;75.24;94760.72;4964038;28;20050;-82
2022/12/05 03:14:11;;;;;;;22.08;9.80;;;;;;;5.06;75.09;94758.09;4962390;28;20031;-82
2022/12/05 03:16:45;;;;;;;19.45;9.85;;;;;;;5.05;75.14;94756.47;4964159;28;20246;-81
2022/12/05 03:19:19;;;;;;;16.83;8.93;;;;;;;5.04;75.26;94766.25;4963122;28;20282;-82
2022/12/05 03:21:55;;;;;;;18.33;9.73;;;;;;;5.06;75.36;94755.44;4964323;28;20369;-81
2022/12/05 03:24:21;;;;;;;23.77;10.60;;;;;;;5.03;75.32;94769.97;4964394;28;20031;-82
2022/12/05 03:27:19;;;;;;;18.00;9.48;;;;;;;5.06;75.71;94772.09;4964379;28;20035;-82
2022/12/05 03:30:06;;;;;;;16.85;8.88;;;;;;;5.06;75.78;94769.44;4964671;28;20027;-81
2022/12/05 03:32:50;;;;;;;24.02;9.88;;;;;;;5.06;75.98;94769.44;4967828;28;20026;-82
2022/12/05 03:35:29;;;;;;;16.60;9.40;;;;;;;5.07;75.66;94765.75;4967819;28;20035;-81
2022/12/05 03:38:10;;;;;;;18.67;8.35;;;;;;;5.09;75.90;94771.59;4967975;28;20112;-81
2022/12/05 03:41:03;;;;;;;20.25;8.52;;;;;;;5.08;75.97;94777.13;4967983;28;20069;-81
2022/12/05 03:43:52;;;;;;;20.33;8.75;;;;;;;5.08;76.09;94769.19;4967721;28;20042;-82
2022/12/05 03:46:37;;;;;;;15.05;7.97;;;;;;;5.01;76.00;94774.72;4967636;28;20279;-82
2022/12/05 03:49:09;;;;;;;16.55;7.65;;;;;;;4.91;76.84;94774.66;4967610;28;20221;-82
2022/12/05 03:51:40;;;;;;;13.48;7.70;;;;;;;4.84;77.17;94774.84;4967465;28;20031;-81
2022/12/05 03:54:22;;;;;;;15.60;8.05;;;;;;;4.79;77.31;94774.81;4966237;28;20034;-81
2022/12/05 03:57:00;;;;;;;21.77;9.00;;;;;;;4.77;77.61;94776.94;4967469;28;20115;-81
2022/12/05 03:59:33;;;;;;;18.45;9.05;;;;;;;4.78;77.76;94781.16;4967546;28;20220;-81
2022/12/05 04:02:06;;;;;;;17.50;8.85;;;;;;;4.80;77.90;94774.59;4967377;28;20094;-82
2022/12/05 04:04:39;;;;;;;17.52;8.10;;;;;;;4.81;77.80;94772.72;4967252;28;20103;-81
2022/12/05 04:07:08;;;;;;;16.85;8.48;;;;;;;4.80;78.07;94774.59;4967190;28;20027;-81
2022/12/05 04:09:43;;;;;;;18.33;8.68;;;;;;;4.86;78.13;94767.47;4998302;28;20023;-81
2022/12/05 04:12:18;;;;;;;16.75;8.20;;;;;;;4.93;78.05;94765.41;4967174;28;20089;-81
2022/12/05 04:14:48;;;;;;;14.95;8.77;;;;;;;5.01;78.20;94761.50;4998219;28;20019;-81
2022/12/05 04:17:29;;;;;;;17.35;8.43;;;;;;;5.11;78.02;94750.16;4966804;28;20043;-81
2022/12/05 04:22:56;;;;;;;16.48;8.45;;;;;;;5.20;77.25;94746.00;4967048;28;20340;-82
2022/12/05 04:25:34;;;;;;;13.60;7.55;;;;;;;5.26;77.20;94746.81;4966884;28;20031;-81
2022/12/05 04:28:21;;;;;;;14.98;8.00;;;;;;;5.29;76.97;94752.41;4966639;28;20046;-82
2022/12/05 04:31:13;;;;;;;16.98;8.55;;;;;;;5.33;76.85;94748.19;4966933;28;20031;-81
2022/12/05 04:33:55;;;;;;;14.32;6.85;;;;;;;5.37;76.78;94751.91;4966747;28;20030;-81
2022/12/05 04:36:33;;;;;;;18.55;7.72;;;;;;;5.42;77.01;94754.56;4966581;28;20078;-81
2022/12/05 04:39:08;;;;;;;15.75;7.95;;;;;;;5.47;76.76;94758.28;4966708;28;20019;-81
2022/12/05 04:41:39;;;;;;;19.42;8.40;;;;;;;5.47;76.61;94760.91;4966237;28;20027;-82
2022/12/05 04:44:11;;;;;;;14.57;7.32;;;;;;;5.50;76.62;94757.78;4997681;28;20094;-81
2022/12/05 04:46:43;;;;;;;16.38;6.95;;;;;;;5.52;76.65;94753.81;4966312;28;20023;-82
2022/12/05 04:49:12;;;;;;;15.93;7.97;;;;;;;5.55;76.40;94765.72;4966509;28;20031;-82
2022/12/05 04:51:40;;;;;;;17.83;7.70;;;;;;;5.58;76.45;94759.91;4966257;28;20027;-82
2022/12/05 04:54:29;;;;;;;14.25;7.78;;;;;;;5.62;76.39;94768.91;4966806;28;20023;-82
2022/12/05 04:57:02;;;;;;;18.45;6.68;;;;;;;5.65;76.13;94771.03;4966566;28;20022;-82
2022/12/05 04:59:28;;;;;;;13.85;6.65;;;;;;;5.66;75.90;94764.72;4966388;28;20217;-81
2022/12/05 05:01:59;;;;;;;12.48;6.68;;;;;;;5.68;75.98;94769.72;4966175;28;20055;-81
2022/12/05 05:04:55;;;;;;;18.05;7.75;;;;;;;5.70;76.03;94770.25;4965569;28;20310;-80
2022/12/05 05:07:21;;;;;;;18.65;7.93;;;;;;;5.69;75.76;94771.31;4957169;28;20055;-80
2022/12/05 05:09:46;;;;;;;13.98;7.00;;;;;;;5.73;75.42;94775.81;4964440;28;20337;-80
2022/12/05 05:12:12;;;;;;;14.02;6.22;;;;;;;5.72;75.51;94768.97;4966089;28;20023;-80
2022/12/05 05:14:37;;;;;;;13.68;6.70;;;;;;;5.77;75.20;94787.47;4965793;28;20210;-81
2022/12/05 05:17:03;;;;;;;15.35;7.10;;;;;;;5.78;75.09;94793.56;4965790;28;20039;-80
2022/12/05 05:19:29;;;;;;;17.40;6.93;;;;;;;5.79;74.89;94792.50;4966091;28;20081;-80
2022/12/05 05:21:55;;;;;;;16.55;6.28;;;;;;;5.77;74.72;94787.47;4965893;28;20280;-80
2022/12/05 05:24:22;;;;;;;11.65;6.80;;;;;;;5.78;74.52;94790.91;4965610;28;20027;-81
2022/12/05 05:26:47;;;;;;;17.33;7.15;;;;;;;5.79;74.04;94803.88;4965584;28;20324;-80
2022/12/05 05:29:14;;;;;;;13.02;6.03;;;;;;;5.81;74.01;94804.41;4965602;28;20019;-80
2022/12/05 05:31:40;;;;;;;14.95;7.00;;;;;;;5.85;73.88;94798.63;4995715;28;20213;-81
2022/12/05 05:34:07;;;;;;;17.00;7.00;;;;;;;5.84;73.86;94800.44;4965831;28;20102;-81
2022/12/05 05:36:32;;;;;;;10.25;5.18;;;;;;;5.78;73.49;94798.84;4965401;28;20016;-80
2022/12/05 05:39:00;;;;;;;13.80;6.68;;;;;;;5.78;73.39;94804.94;4965633;28;20027;-81
2022/12/05 05:41:35;;;;;;;24.00;7.18;;;;;;;5.80;73.25;94808.13;4965817;28;20026;-81
2022/12/05 05:44:02;;;;;;;11.60;6.85;;;;;;;5.78;73.23;94799.66;4965596;28;20027;-81
2022/12/05 05:46:30;;;;;;;13.60;6.38;;;;;;;5.80;73.54;94804.66;4965563;28;20031;-81
2022/12/05 05:48:56;;;;;;;13.60;7.10;;;;;;;5.83;73.85;94794.38;4965686;28;20102;-82
2022/12/05 05:51:26;;;;;;;13.35;6.55;;;;;;;5.85;73.68;94798.63;4965183;28;20027;-82
2022/12/05 05:53:52;;;;;;;13.98;7.60;;;;;;;5.88;73.83;94804.16;4964692;28;20094;-81
2022/12/05 05:56:19;;;;;;;10.77;5.57;;;;;;;5.89;73.52;94799.69;4965335;28;20055;-80
2022/12/05 05:58:45;;;;;;;11.13;5.88;;;;;;;5.90;73.37;94812.66;4965295;28;20023;-82
2022/12/05 06:01:17;;;;;;;11.88;6.20;;;;;;;5.93;73.67;94806.84;4965040;28;20023;-81
2022/12/05 06:03:43;;;;;;;16.50;6.72;;;;;;;5.94;73.42;94805.81;4965065;28;20029;-81
2022/12/05 06:06:11;;;;;;;13.80;6.45;;;;;;;5.97;73.58;94815.09;4965027;28;20027;-81
2022/12/05 06:08:39;;;;;;;13.80;6.63;;;;;;;5.99;73.20;94826.22;4965087;28;20019;-81
2022/12/05 06:11:09;;;;;;;12.50;6.40;;;;;;;6.02;73.11;94820.38;4965093;28;20033;-80
2022/12/05 06:13:34;;;;;;;23.23;11.23;;;;;;;6.02;73.38;94815.09;4964897;28;20038;-80
2022/12/05 06:16:00;;;;;;;62.28;30.13;;;;;;;6.07;73.04;94823.06;4964666;28;20111;-80
2022/12/05 06:18:26;;;;;;;67.93;32.80;;;;;;;6.09;72.98;94818.31;4964985;28;20067;-80
2022/12/05 06:20:55;;;;;;;89.50;37.53;;;;;;;6.10;72.98;94817.22;4964989;28;20023;-80
2022/12/05 06:23:22;;;;;;;98.43;45.55;;;;;;;6.13;73.07;94822.03;4964842;28;20042;-79
2022/12/05 06:25:48;;;;;;;92.25;44.35;;;;;;;6.14;72.97;94807.72;4964811;28;20034;-80
2022/12/05 06:28:14;;;;;;;60.35;29.55;;;;;;;6.15;72.91;94816.47;4964666;28;20341;-79
2022/12/05 06:30:40;;;;;;;37.33;18.42;;;;;;;6.16;72.89;94818.84;4964668;28;20053;-79
2022/12/05 06:33:05;;;;;;;31.88;12.40;;;;;;;6.15;72.77;94811.19;4963264;28;20027;-78
2022/12/05 06:35:30;;;;;;;27.80;14.40;;;;;;;6.16;72.74;94818.84;4964480;28;20217;-78
2022/12/05 06:37:56;;;;;;;36.80;19.42;;;;;;;6.17;72.93;94822.31;4964537;28;20062;-78
2022/12/05 06:40:21;;;;;;;44.05;20.83;;;;;;;6.18;72.73;94819.38;4964465;28;20038;-79
2022/12/05 06:42:47;;;;;;;40.58;22.40;;;;;;;6.21;72.60;94820.72;4964532;28;20058;-80
2022/12/05 06:45:12;;;;;;;34.67;18.90;;;;;;;6.20;72.81;94822.56;4964340;28;20396;-80
2022/12/05 06:47:38;;;;;;;31.35;16.42;;;;;;;6.26;72.62;94825.22;4964411;28;20050;-79
2022/12/05 06:50:04;;;;;;;25.95;12.88;;;;;;;6.30;72.56;94826.28;4964364;28;20336;-79
2022/12/05 06:52:29;;;;;;;26.20;12.65;;;;;;;6.30;72.78;94821.78;4964556;28;20034;-79
2022/12/05 06:54:55;;;;;;;22.73;9.48;;;;;;;6.34;72.59;94817.56;4964728;28;20329;-79
2022/12/05 06:57:20;;;;;;;15.38;7.88;;;;;;;6.36;72.46;94825.25;4964497;28;20023;-79
2022/12/05 06:59:46;;;;;;;18.70;6.78;;;;;;;6.41;72.17;94822.59;4964523;28;20034;-79
2022/12/05 07:02:12;;;;;;;15.57;6.95;;;;;;;6.50;72.34;94834.28;4964270;28;20051;-78
2022/12/05 07:04:37;;;;;;;14.02;6.57;;;;;;;6.55;73.07;94828.16;4966166;28;20039;-80
2022/12/05 07:07:02;;;;;;;13.13;6.53;;;;;;;6.57;72.88;94828.72;4967690;28;20031;-78
2022/12/05 07:12:15;;;;;;;19.67;7.90;;;;;;;6.67;72.09;94830.56;4967901;28;20029;-76
2022/12/05 07:14:42;;;;;;;15.52;8.85;;;;;;;6.71;71.84;94826.34;4967977;28;20029;-76
2022/12/05 07:17:07;;;;;;;15.35;7.55;;;;;;;6.77;71.63;94831.38;4968172;28;20046;-77
2022/12/05 07:19:33;;;;;;;15.07;6.47;;;;;;;6.82;71.63;94820.78;4968088;28;20027;-77
2022/12/05 07:21:58;;;;;;;20.55;7.00;;;;;;;6.87;71.55;94827.94;4967812;28;20094;-86
2022/12/05 07:24:24;;;;;;;16.20;7.38;;;;;;;6.90;71.64;94830.06;4967708;28;20039;-76
2022/12/05 07:26:49;;;;;;;24.23;7.60;;;;;;;7.00;71.36;94832.69;4967728;28;20031;-76
2022/12/05 07:29:15;;;;;;;18.58;6.00;;;;;;;7.05;71.20;94836.41;4967799;28;20226;-76
2022/12/05 07:31:40;;;;;;;12.90;6.13;;;;;;;7.07;71.00;94842.25;4967698;28;20042;-75
2022/12/05 07:34:06;;;;;;;13.18;5.80;;;;;;;7.11;70.51;94852.03;4968127;28;20313;-77
2022/12/05 07:36:31;;;;;;;13.48;6.15;;;;;;;7.15;70.37;94841.69;4966658;28;20023;-76
2022/12/05 07:38:57;;;;;;;12.32;5.90;;;;;;;7.19;70.35;94840.91;4967983;28;20026;-75
2022/12/05 07:41:29;;;;;;;13.07;6.10;;;;;;;7.21;70.39;94840.63;4967704;28;20094;-76
2022/12/05 07:43:56;;;;;;;16.67;6.80;;;;;;;7.26;70.12;94853.09;4967607;28;20031;-75
2022/12/05 07:46:23;;;;;;;14.95;6.50;;;;;;;7.27;70.16;94844.88;4967314;28;20055;-74
2022/12/05 07:48:48;;;;;;;23.55;6.10;;;;;;;7.29;70.18;94847.25;4967592;28;20023;-75
2022/12/05 07:51:28;;;;;;;18.30;7.13;;;;;;;7.29;70.36;94850.69;4967421;28;20382;-76
2022/12/05 07:53:54;;;;;;;11.55;5.82;;;;;;;7.28;70.42;94853.59;4967398;28;20254;-77
2022/12/05 07:56:20;;;;;;;16.58;6.63;;;;;;;7.32;70.07;94846.72;4967268;28;20094;-77
2022/12/05 07:58:48;;;;;;;13.23;6.00;;;;;;;7.34;69.63;94842.72;4967351;28;20225;-77
2022/12/05 08:01:19;;;;;;;10.32;5.18;;;;;;;7.35;69.74;94841.66;4967403;28;20221;-77
2022/12/05 08:03:45;;;;;;;13.97;7.03;;;;;;;7.39;69.12;94842.72;4967334;28;20098;-76
2022/12/05 08:06:15;;;;;;;23.52;7.72;;;;;;;7.36;68.65;94847.75;4966940;28;20282;-76
2022/12/05 08:08:41;;;;;;;22.35;6.00;;;;;;;7.42;68.31;94839.53;4967085;28;20027;-77
2022/12/05 08:11:12;;;;;;;19.55;5.90;;;;;;;7.47;67.77;94841.38;4966721;28;20019;-78
2022/12/05 08:13:37;;;;;;;18.30;5.70;;;;;;;7.47;67.87;94840.56;4967012;28;20053;-78
2022/12/05 08:16:05;;;;;;;11.07;5.07;;;;;;;7.53;67.60;94850.09;4966087;28;20020;-78
2022/12/05 08:18:31;;;;;;;11.07;4.72;;;;;;;7.54;67.23;94841.88;4966929;28;20019;-79
2022/12/05 08:21:07;;;;;;;12.95;4.75;;;;;;;7.58;66.96;94845.59;4966793;28;20019;-77
2022/12/05 08:23:35;;;;;;;12.10;4.43;;;;;;;7.62;66.95;94846.63;4966977;28;20023;-78
2022/12/05 08:26:07;;;;;;;7.03;4.00;;;;;;;7.67;67.10;94847.69;4997835;28;20061;-77
2022/12/05 08:28:33;;;;;;;6.13;3.47;;;;;;;7.69;66.49;94842.91;4966802;28;20023;-78
2022/12/05 08:31:11;;;;;;;9.65;3.63;;;;;;;7.71;66.32;94846.88;4966978;28;20061;-76
2022/12/05 08:33:37;;;;;;;9.68;4.43;;;;;;;7.70;66.23;94842.66;4966608;28;20026;-78
2022/12/05 08:36:05;;;;;;;10.18;4.35;;;;;;;7.66;66.39;94849.56;4966473;28;20027;-78
2022/12/05 08:38:31;;;;;;;11.45;4.20;;;;;;;7.67;66.22;94856.44;4997758;28;20027;-75
2022/12/05 08:41:01;;;;;;;8.55;4.55;;;;;;;7.69;66.64;94843.69;4966696;28;20339;-75
2022/12/05 08:43:27;;;;;;;17.65;4.70;;;;;;;7.72;66.56;94845.81;4966577;28;20031;-75
2022/12/05 08:45:53;;;;;;;11.30;5.10;;;;;;;7.76;66.16;94843.44;4966270;28;20095;-75
2022/12/05 08:48:18;;;;;;;11.63;5.78;;;;;;;7.82;65.92;94842.34;4966356;28;20027;-76
2022/12/05 08:50:44;;;;;;;12.52;6.03;;;;;;;7.88;66.18;94841.25;4997435;28;20074;-77
2022/12/05 08:53:09;;;;;;;16.00;7.32;;;;;;;7.98;66.69;94843.88;4966350;28;20034;-76
2022/12/05 08:55:35;;;;;;;11.80;5.97;;;;;;;8.06;66.97;94839.03;4966593;28;20023;-77
2022/12/05 08:58:01;;;;;;;16.13;5.50;;;;;;;8.14;66.12;94846.44;4966035;28;20042;-76
2022/12/05 09:00:26;;;;;;;10.95;5.43;;;;;;;8.17;65.99;94849.34;4966332;28;20031;-77
2022/12/05 09:02:54;;;;;;;15.30;5.50;;;;;;;8.26;65.63;94848.78;4966167;28;20031;-77
2022/12/05 09:05:21;;;;;;;10.45;5.70;;;;;;;8.34;65.33;94842.88;4966328;28;20505;-83
2022/12/05 09:07:47;;;;;;;10.02;4.78;;;;;;;8.37;65.22;94843.16;4966010;28;20062;-83
2022/12/05 09:10:12;;;;;;;10.52;5.28;;;;;;;8.42;64.90;94843.13;4966095;28;20027;-83
2022/12/05 09:12:38;;;;;;;12.23;4.72;;;;;;;8.50;64.69;94855.03;4965879;28;20027;-82
2022/12/05 09:15:06;;;;;;;10.85;4.95;;;;;;;8.55;64.18;94852.38;4966027;28;20023;-84
2022/12/05 09:17:32;;;;;;;14.32;4.68;;;;;;;8.58;63.95;94851.81;4965655;28;20031;-82
2022/12/05 09:19:57;;;;;;;9.32;5.35;;;;;;;8.62;63.40;94841.44;4965909;28;20026;-81
2022/12/05 09:22:23;;;;;;;10.05;4.70;;;;;;;8.59;62.91;94847.31;4965938;28;20304;-82
2022/12/05 09:24:49;;;;;;;18.13;4.63;;;;;;;8.60;63.26;94832.94;4965889;28;20217;-87
2022/12/05 09:27:14;;;;;;;7.65;3.97;;;;;;;8.66;63.48;94831.03;4964847;28;20190;-83
2022/12/05 09:29:40;;;;;;;8.05;3.63;;;;;;;8.60;63.06;94827.63;4965603;28;20094;-84
2022/12/05 09:32:06;;;;;;;7.80;4.10;;;;;;;8.60;62.96;94828.41;4964252;28;20015;-83
2022/12/05 09:34:32;;;;;;;5.90;3.53;;;;;;;8.54;63.22;94834.81;4965608;28;20107;-82
2022/12/05 09:36:59;;;;;;;5.72;3.55;;;;;;;8.56;63.47;94829.25;4964636;28;20182;-81
2022/12/05 09:39:24;;;;;;;14.18;4.18;;;;;;;8.55;63.72;94828.47;4965600;28;20023;-85
2022/12/05 09:42:19;;;;;;;8.88;3.50;;;;;;;8.52;63.54;94821.03;4965613;28;20513;-83
2022/12/05 09:44:52;;;;;;;11.20;6.68;;;;;;;8.56;63.98;94816.75;4964228;28;20314;-85
2022/12/05 09:47:46;;;;;;;32.00;10.60;;;;;;;8.67;63.82;94822.81;4965452;28;20058;-82
2022/12/05 09:50:29;;;;;;;12.57;7.57;;;;;;;8.77;63.16;94811.28;4996417;28;20082;-84
2022/12/05 09:52:54;;;;;;;;;;;;;;;8.81;63.13;94817.63;4965572;28;20340;-80
2022/12/05 09:55:23;;;;;;;11.13;4.80;;;;;;;8.82;63.17;94819.22;4965106;28;19910;-81
2022/12/05 09:57:57;;;;;;;9.30;5.00;;;;;;;8.93;63.01;94806.63;4964081;28;20147;-80
2022/12/05 10:00:43;;;;;;;12.00;4.15;;;;;;;8.96;62.66;94808.75;5100627;27;20381;-80
2022/12/05 10:03:23;;;;;;;9.63;5.45;;;;;;;9.00;62.48;94797.28;5100251;28;20384;-82
2022/12/05 10:06:13;;;;;;;9.13;3.88;;;;;;;9.05;62.43;94801.75;5100197;28;20016;-82
2022/12/05 10:09:11;;;;;;;11.95;5.63;;;;;;;9.12;62.27;94802.22;5100152;28;20012;-85
2022/12/05 10:11:45;;;;;;;14.80;5.85;;;;;;;9.18;62.01;94792.31;5077183;28;20103;-89
2022/12/05 10:14:55;;;;;;;8.95;5.20;;;;;;;9.15;61.88;94791.00;5100045;28;20319;-85
2022/12/05 10:17:51;;;;;;;10.85;5.03;;;;;;;9.06;61.85;94790.03;5057793;28;20250;-86
2022/12/05 10:20:48;;;;;;;12.80;5.60;;;;;;;9.02;61.82;94787.16;5056969;28;20254;-84
2022/12/05 10:23:19;;;;;;;14.23;6.35;;;;;;;9.00;61.60;94791.16;5095304;28;20044;-87
2022/12/05 10:25:45;;;;;;;17.90;7.65;;;;;;;8.97;61.69;94792.50;5098829;28;20024;-84
2022/12/05 10:28:36;;;;;;;15.05;6.35;;;;;;;8.98;61.77;94794.09;5098560;28;20307;-79
2022/12/05 10:31:08;;;;;;;12.25;6.30;;;;;;;8.97;61.67;94783.72;5099767;28;20099;-82
2022/12/05 10:33:42;;;;;;;13.27;7.00;;;;;;;8.97;61.67;94794.38;5099947;28;20050;-81
2022/12/05 10:36:12;;;;;;;15.20;6.75;;;;;;;8.93;61.92;94782.69;5099817;28;20098;-82
2022/12/05 10:38:39;;;;;;;13.27;7.13;;;;;;;8.92;62.13;94797.09;5099605;28;20024;-85
2022/12/05 10:41:11;;;;;;;33.20;13.35;;;;;;;8.91;62.42;94785.63;5099589;28;20035;-83
2022/12/05 10:43:41;;;;;;;39.55;14.63;;;;;;;8.89;62.70;94779.81;5099618;28;20021;-84
2022/12/05 10:46:07;;;;;;;47.90;21.48;;;;;;;8.91;62.22;94769.69;5099502;28;20051;-86
2022/12/05 10:48:36;;;;;;;16.38;8.88;;;;;;;8.94;62.11;94771.00;5099755;28;20021;-85
2022/12/05 10:51:03;;;;;;;16.42;7.30;;;;;;;8.91;62.32;94779.53;5098208;28;20047;-83
2022/12/05 10:53:39;;;;;;;17.23;7.63;;;;;;;8.89;62.65;94771.03;5099603;28;20338;-81
2022/12/05 10:56:38;;;;;;;12.40;6.47;;;;;;;8.90;62.50;94760.13;5099177;28;20210;-82
2022/12/05 10:59:05;;;;;;;13.73;7.55;;;;;;;8.89;62.45;94771.81;5098963;28;20086;-83
2022/12/05 11:01:31;;;;;;;14.98;8.32;;;;;;;8.89;62.47;94771.03;5099427;28;20047;-82
2022/12/05 11:04:07;;;;;;;14.23;7.45;;;;;;;8.89;62.62;94766.50;5099151;28;20028;-86
2022/12/05 11:06:33;;;;;;;20.92;6.25;;;;;;;8.91;62.68;94764.38;5098090;28;20030;-82
2022/12/05 11:09:12;;;;;;;14.20;5.93;;;;;;;8.92;62.34;94760.66;5099443;28;20020;-85
2022/12/05 11:11:37;;;;;;;14.38;5.00;;;;;;;8.93;62.01;94756.91;5086762;28;20030;-82
2022/12/05 11:14:22;;;;;;;9.70;5.88;;;;;;;8.87;61.89;94751.91;5085612;28;20052;-83
2022/12/05 11:16:56;;;;;;;9.80;4.53;;;;;;;8.76;62.17;94759.97;5085557;28;20088;-83
2022/12/05 11:19:21;;;;;;;16.92;5.63;;;;;;;8.78;62.73;94755.19;5085589;28;20020;-82
2022/12/05 11:21:49;;;;;;;11.00;6.28;;;;;;;8.83;62.61;94749.84;5085379;28;20031;-83
2022/12/05 11:24:35;;;;;;;10.68;5.15;;;;;;;8.87;62.65;94752.72;5085287;28;20081;-81
2022/12/05 11:27:16;;;;;;;7.95;4.80;;;;;;;8.83;62.31;94749.03;5085203;28;20108;-85
2022/12/05 11:29:43;;;;;;;10.40;4.72;;;;;;;8.77;62.29;94744.81;5085157;28;20331;-86
2022/12/05 11:32:18;;;;;;;10.93;5.15;;;;;;;8.79;62.69;94742.69;5084967;28;20028;-89
2022/12/05 11:34:51;;;;;;;11.48;5.75;;;;;;;8.79;62.73;94742.69;5085720;28;20024;-88
2022/12/05 11:37:25;;;;;;;11.90;5.88;;;;;;;8.82;62.63;94736.81;5084505;28;20028;-90
2022/12/05 11:39:51;;;;;;;12.05;6.55;;;;;;;8.84;62.84;94735.47;5085870;28;20047;-88
2022/12/05 11:42:29;;;;;;;16.98;6.70;;;;;;;8.87;62.64;94726.13;5085289;28;20319;-83
2022/12/05 11:45:15;;;;;;;10.93;5.50;;;;;;;8.84;62.63;94716.06;5085428;28;20024;-88
2022/12/05 11:47:49;;;;;;;9.55;5.07;;;;;;;8.86;62.66;94716.56;5084846;28;20085;-81
2022/12/05 11:50:22;;;;;;;19.20;5.65;;;;;;;8.87;62.54;94712.03;5083833;28;20027;-86
2022/12/05 11:53:00;;;;;;;10.90;5.47;;;;;;;8.85;62.57;94717.63;5084595;28;20087;-84
2022/12/05 11:55:32;;;;;;;22.20;6.85;;;;;;;8.84;62.71;94705.44;5083841;28;20028;-82
2022/12/05 11:58:13;;;;;;;24.58;7.65;;;;;;;8.84;63.06;94708.09;5083750;28;20214;-86
2022/12/05 12:01:00;;;;;;;13.50;5.57;;;;;;;8.83;63.34;94701.97;5084939;28;20047;-87